Gouch Mill, Missouri
Current Conditions -  °F | °C
As of 10:35 PM on Sunday 21 Dec 2014 (Local Time) from KVER Reporting Station
Overcast Overcast  
Wind Chill: 33°   Ceiling: 4600
Heat Index: 41°   Visibility: 10mi
Dew Point: 37°   Wind: 15mph
Humidity: 83%   Direction: 140°SE
Pressure: 29.84"   Gusts: NA
Location:  38.8294°N, 92.5997°W
Report Text: KVER 220435Z AUTO 14013KT 10SM OVC046 05/03 A2984 RMK AO2 T00510025
Loading
Personal Weather Stations






























Interactive Weather Map New forecast layout! Learn more

10-Day Weather Forecast

Advertisements
Track Severe Weather on mobile